Cobbs Creek, Virginia
Current Conditions -  °F | °C
As of 1:35 PM on Thursday 27 Nov 2014 (Local Time) from KW75 Reporting Station
Overcast Overcast  
Wind Chill:   Ceiling: 3500
Heat Index:   Visibility: 10mi
Dew Point:   Wind: 5mph
Humidity: 91%   Direction: 350°N
Pressure: 30.02"   Gusts: NA
Location:  37.51°N, 76.4°W
Report Text: KW75 271835Z AUTO 35004KT 10SM SCT008 BKN035 OVC070 06/04 A3002 RMK AO1 T00570043
Loading
Personal Weather Stations






























Interactive Weather Map New forecast layout! Learn more

10-Day Weather Forecast

Advertisements
Track Severe Weather on mobile